Flugplatz Borkenberge

Für EDLB sind keine METAR/TAF Berichte vorhanden.
Es werden die Flugwettermeldungen vom Flugplatz Dortmund in 36 km Entfernung angezeigt.

Bericht für EDLW

vom 25.10. um 15:50 UTC

Wind 5 kt aus 190°

Sichtweite 10 km oder mehr

aufgebrochene Bewölkung in 3900 ft

Temperatur 13.0°C

Taupunkt 8.0°C

Luftfeuchtigkeit 72%

Luftdruck 1017 hPa

EDLW 251550Z 19005KT 9999 BKN039 13/08 Q1017

Prognose für EDLW

vom 25.10. um 11:00 UTC

Zwischen 12:00 UTC und 02:00 UTC

Wind 8 kt aus 210°

Sichtweite 10 km oder mehr

aufgebrochene Bewölkung in 2500 ft


Am 26.10. zwischen 02:00 und 05:00 UTC übergehend zu

Wind 8 kt aus 210°

Sichtweite 10 km oder mehr

aufgebrochene Bewölkung in 1200 ft


Am 26.10. zwischen 04:00 UTC und 08:00 UTC zeitweise

aufgebrochene Bewölkung in 800 ft


Am 26.10. zwischen 08:00 und 11:00 UTC übergehend zu

Wind 8 kt aus 210°

Sichtweite 10 km oder mehr

aufgebrochene Bewölkung in 2000 ft

TAF EDLW 251100Z 2512/2612 21008KT 9999 BKN025 BECMG 2602/2605 BKN012 TEMPO 2604/2608 BKN008 BECMG 2608/2611 BKN020
Impressum